createdAt,value
2024-02-23T00:01:19.573Z,10.02
2024-02-23T00:03:47.681Z,9.30
2024-02-23T00:06:16.086Z,9.95
2024-02-23T00:08:44.200Z,8.82
2024-02-23T00:11:12.474Z,9.75
2024-02-23T00:13:40.360Z,9.63
2024-02-23T00:16:08.541Z,9.73
2024-02-23T00:18:36.383Z,9.00
2024-02-23T00:21:05.783Z,9.63
2024-02-23T00:23:33.714Z,7.60
2024-02-23T00:26:01.947Z,8.95
2024-02-23T00:28:29.750Z,9.40
2024-02-23T00:30:57.872Z,9.90
2024-02-23T00:33:25.642Z,9.65
2024-02-23T00:35:53.697Z,10.18
2024-02-23T00:38:21.506Z,9.90
2024-02-23T00:40:49.683Z,9.05
2024-02-23T00:43:17.556Z,9.55
2024-02-23T00:45:45.589Z,9.13
2024-02-23T00:48:15.025Z,9.30
2024-02-23T00:50:43.236Z,8.90
2024-02-23T00:53:11.479Z,8.98
2024-02-23T00:55:39.631Z,9.25
2024-02-23T00:58:07.632Z,9.23
2024-02-23T01:00:35.779Z,9.35
2024-02-23T01:03:03.792Z,8.35
2024-02-23T01:05:32.031Z,9.32
2024-02-23T01:07:59.936Z,8.65
2024-02-23T01:10:28.566Z,9.25
2024-02-23T01:12:56.410Z,8.45
2024-02-23T01:15:24.658Z,7.72
2024-02-23T01:17:52.439Z,8.45
2024-02-23T01:20:20.518Z,8.60
2024-02-23T01:22:48.496Z,8.07
2024-02-23T01:25:16.899Z,8.55
2024-02-23T01:27:47.730Z,8.85
2024-02-23T01:30:16.016Z,8.32
2024-02-23T01:32:44.056Z,8.43
2024-02-23T01:35:12.231Z,8.68
2024-02-23T01:37:40.186Z,8.50
2024-02-23T01:40:09.633Z,8.23
2024-02-23T01:42:37.449Z,7.38
2024-02-23T01:45:06.227Z,7.93
2024-02-23T01:47:34.194Z,7.95
2024-02-23T01:50:03.063Z,7.72
2024-02-23T01:52:31.111Z,7.28
2024-02-23T01:54:59.662Z,7.55
2024-02-23T01:57:40.223Z,8.05
2024-02-23T02:00:19.402Z,7.85
2024-02-23T02:02:54.795Z,8.07
2024-02-23T02:05:24.118Z,7.95
2024-02-23T02:07:55.467Z,7.40
2024-02-23T02:10:23.580Z,7.20
2024-02-23T02:12:51.412Z,7.32
2024-02-23T02:15:19.515Z,7.38
2024-02-23T02:17:47.653Z,6.82
2024-02-23T02:20:16.104Z,7.25
2024-02-23T02:22:43.946Z,6.90
2024-02-23T02:25:15.038Z,6.43
2024-02-23T02:27:43.574Z,6.20
2024-02-23T02:30:12.584Z,6.82
2024-02-23T02:32:42.042Z,6.32
2024-02-23T02:35:16.058Z,6.95
2024-02-23T02:37:44.037Z,7.25
2024-02-23T02:40:12.291Z,6.60
2024-02-23T02:42:40.039Z,6.32
2024-02-23T02:45:08.393Z,6.32
2024-02-23T02:47:37.626Z,5.88
2024-02-23T02:50:08.012Z,6.40
2024-02-23T02:52:35.949Z,6.65
2024-02-23T02:55:04.167Z,6.60
2024-02-23T02:57:31.953Z,6.90
2024-02-23T03:00:00.385Z,7.28
2024-02-23T03:02:28.379Z,6.93
2024-02-23T03:04:56.886Z,6.60
2024-02-23T03:07:24.763Z,6.10
2024-02-23T03:09:52.785Z,6.82
2024-02-23T03:12:20.709Z,6.50
2024-02-23T03:14:48.825Z,6.57
2024-02-23T03:17:16.681Z,5.68
2024-02-23T03:19:44.991Z,6.50
2024-02-23T03:22:12.889Z,7.00
2024-02-23T03:24:42.030Z,6.60
2024-02-23T03:27:09.842Z,6.20
2024-02-23T03:29:40.707Z,6.20
2024-02-23T03:32:09.353Z,6.05
2024-02-23T03:34:38.256Z,6.57
2024-02-23T03:37:06.269Z,6.90
2024-02-23T03:39:34.720Z,6.70
2024-02-23T03:42:02.466Z,6.63
2024-02-23T03:44:30.757Z,6.60
2024-02-23T03:46:58.624Z,6.65
2024-02-23T03:49:28.052Z,7.88
2024-02-23T03:51:57.071Z,7.63
2024-02-23T03:54:25.219Z,7.28
2024-02-23T03:56:53.011Z,7.63
2024-02-23T03:59:21.666Z,7.15
2024-02-23T04:01:49.461Z,7.70
2024-02-23T04:04:19.273Z,8.60
2024-02-23T04:06:47.204Z,7.07
2024-02-23T04:09:15.275Z,7.32
2024-02-23T04:11:43.279Z,7.22
2024-02-23T04:14:11.425Z,8.15
2024-02-23T04:16:39.174Z,7.45
2024-02-23T04:19:08.221Z,7.68
2024-02-23T04:21:36.841Z,7.88
2024-02-23T04:24:05.086Z,8.70
2024-02-23T04:26:33.295Z,8.60
2024-02-23T04:29:01.440Z,8.32
2024-02-23T04:31:29.317Z,7.82
2024-02-23T04:33:57.406Z,8.50
2024-02-23T04:36:25.746Z,8.77
2024-02-23T04:38:53.793Z,8.00
2024-02-23T04:41:24.735Z,8.35
2024-02-23T04:43:53.396Z,8.48
2024-02-23T04:46:23.838Z,8.07
2024-02-23T04:48:51.901Z,8.68
2024-02-23T04:51:20.267Z,9.00
2024-02-23T04:53:48.409Z,8.77
2024-02-23T04:56:16.234Z,9.05
2024-02-23T04:58:45.458Z,8.73
2024-02-23T05:01:13.905Z,8.80
2024-02-23T05:03:42.517Z,8.70
2024-02-23T05:06:10.414Z,9.02
2024-02-23T05:08:38.544Z,8.85
2024-02-23T05:11:06.461Z,9.50
2024-02-23T05:13:34.524Z,9.05
2024-02-23T05:16:02.313Z,8.88
2024-02-23T05:18:30.358Z,8.88
2024-02-23T05:20:58.148Z,9.00
2024-02-23T05:23:26.251Z,9.23
2024-02-23T05:25:54.170Z,8.27
2024-02-23T05:28:22.303Z,8.27
2024-02-23T05:30:50.077Z,8.07
2024-02-23T05:33:21.741Z,8.10
2024-02-23T05:35:53.497Z,8.60
2024-02-23T05:38:21.672Z,7.85
2024-02-23T05:40:49.700Z,8.15
2024-02-23T05:43:18.071Z,8.02
2024-02-23T05:45:46.655Z,8.35
2024-02-23T05:48:14.969Z,8.18
2024-02-23T05:50:42.921Z,7.90
2024-02-23T05:53:11.377Z,8.60
2024-02-23T05:55:39.140Z,8.45
2024-02-23T05:58:07.490Z,7.88
2024-02-23T06:00:35.558Z,9.00
2024-02-23T06:03:04.342Z,7.30
2024-02-23T06:05:32.583Z,8.30
2024-02-23T06:08:01.064Z,7.60
2024-02-23T06:10:28.898Z,7.55
2024-02-23T06:12:58.277Z,6.75
2024-02-23T06:15:26.624Z,7.47
2024-02-23T06:17:55.057Z,7.40
2024-02-23T06:20:22.836Z,6.65
2024-02-23T06:22:51.061Z,6.82
2024-02-23T06:25:19.060Z,7.00
2024-02-23T06:27:47.214Z,6.57
2024-02-23T06:30:15.166Z,7.13
2024-02-23T06:32:44.097Z,6.75
2024-02-23T06:35:13.468Z,6.80
2024-02-23T06:37:42.272Z,7.30
2024-02-23T06:40:10.447Z,6.70
2024-02-23T06:42:38.518Z,6.72
2024-02-23T06:45:06.902Z,7.40
2024-02-23T06:47:35.151Z,7.03
2024-02-23T06:50:04.705Z,6.90
2024-02-23T06:52:34.419Z,6.43
2024-02-23T06:55:02.252Z,7.03
2024-02-23T06:57:32.175Z,6.68
2024-02-23T07:00:00.057Z,6.18
2024-02-23T07:02:28.364Z,6.45
2024-02-23T07:04:58.047Z,5.63
2024-02-23T07:07:29.561Z,6.60
2024-02-23T07:09:57.820Z,5.90
2024-02-23T07:12:28.252Z,6.90
2024-02-23T07:14:58.615Z,6.60
2024-02-23T07:17:26.820Z,6.50
2024-02-23T07:19:54.783Z,6.78
2024-02-23T07:22:22.915Z,6.50
2024-02-23T07:24:50.775Z,7.03
2024-02-23T07:27:19.405Z,6.53
2024-02-23T07:29:47.399Z,6.90
2024-02-23T07:32:16.661Z,6.70
2024-02-23T07:34:44.834Z,6.00
2024-02-23T07:37:12.917Z,6.03
2024-02-23T07:39:41.182Z,6.30
2024-02-23T07:42:11.550Z,6.68
2024-02-23T07:44:39.755Z,6.72
2024-02-23T07:47:10.747Z,6.57
2024-02-23T07:49:38.650Z,6.50
2024-02-23T07:52:06.969Z,7.07
2024-02-23T07:54:34.884Z,7.05
2024-02-23T07:57:05.685Z,7.07
2024-02-23T07:59:34.412Z,7.22
2024-02-23T08:02:03.050Z,6.18
2024-02-23T08:04:31.359Z,6.88
2024-02-23T08:07:01.343Z,6.95
2024-02-23T08:09:29.949Z,7.80
2024-02-23T08:11:58.180Z,7.35
2024-02-23T08:14:27.677Z,6.80
2024-02-23T08:16:55.795Z,7.40
2024-02-23T08:19:25.216Z,6.78
2024-02-23T08:21:53.437Z,7.45
2024-02-23T08:24:23.871Z,6.88
2024-02-23T08:26:51.937Z,6.97
2024-02-23T08:29:20.065Z,7.65
2024-02-23T08:31:48.476Z,7.30
2024-02-23T08:34:16.375Z,6.75
2024-02-23T08:36:44.744Z,7.18
2024-02-23T08:39:12.699Z,7.20
2024-02-23T08:41:40.757Z,6.57
2024-02-23T08:44:08.591Z,7.18
2024-02-23T08:46:38.574Z,6.55
2024-02-23T08:49:06.612Z,6.68
2024-02-23T08:51:34.841Z,6.80
2024-02-23T08:54:05.788Z,5.70
2024-02-23T08:56:37.982Z,5.80
2024-02-23T08:59:05.916Z,5.88
2024-02-23T09:01:34.212Z,6.70
2024-02-23T09:04:02.413Z,6.45
2024-02-23T09:06:30.658Z,6.63
2024-02-23T09:08:58.738Z,5.75
2024-02-23T09:11:26.866Z,6.30
2024-02-23T09:13:54.730Z,6.65
2024-02-23T09:16:25.779Z,7.07
2024-02-23T09:18:53.683Z,6.40
2024-02-23T09:21:24.307Z,6.32
2024-02-23T09:23:52.207Z,6.10
2024-02-23T09:26:20.312Z,6.10
2024-02-23T09:28:48.196Z,6.32
2024-02-23T09:31:16.279Z,5.97
2024-02-23T09:33:45.308Z,6.32
2024-02-23T09:36:20.675Z,5.72
2024-02-23T09:38:49.718Z,6.70
2024-02-23T09:41:22.420Z,6.18
2024-02-23T09:43:52.338Z,6.43
2024-02-23T09:46:20.745Z,6.20
2024-02-23T09:48:51.622Z,5.70
2024-02-23T09:51:21.676Z,5.88
2024-02-23T09:53:52.877Z,6.05
2024-02-23T09:56:22.548Z,5.70
2024-02-23T09:58:51.730Z,5.80
2024-02-23T10:01:28.799Z,5.88
2024-02-23T10:03:59.490Z,5.97
2024-02-23T10:06:27.973Z,5.82
2024-02-23T10:08:56.307Z,6.40
2024-02-23T10:11:25.772Z,6.57
2024-02-23T10:13:54.002Z,6.88
2024-02-23T10:16:23.248Z,6.35
2024-02-23T10:18:51.557Z,7.00
2024-02-23T10:21:19.893Z,6.35
2024-02-23T10:23:51.558Z,7.03
2024-02-23T10:26:21.709Z,6.72
2024-02-23T10:28:50.032Z,6.85
2024-02-23T10:31:18.371Z,6.53
2024-02-23T10:33:49.018Z,7.13
2024-02-23T10:36:18.973Z,7.18
2024-02-23T10:38:48.471Z,7.32
2024-02-23T10:41:18.879Z,7.10
2024-02-23T10:43:49.898Z,6.63
2024-02-23T10:46:19.667Z,7.50
2024-02-23T10:48:49.902Z,6.93
2024-02-23T10:51:20.952Z,6.97
2024-02-23T10:53:51.452Z,7.30
2024-02-23T10:56:20.591Z,6.75
2024-02-23T10:58:48.925Z,7.65
2024-02-23T11:01:19.451Z,7.55
2024-02-23T11:03:51.786Z,6.90
2024-02-23T11:06:22.779Z,7.13
2024-02-23T11:08:52.805Z,7.47
2024-02-23T11:11:20.870Z,7.30
2024-02-23T11:13:48.970Z,7.75
2024-02-23T11:16:27.327Z,7.28
2024-02-23T11:19:12.629Z,7.75
2024-02-23T11:21:40.927Z,7.53
2024-02-23T11:24:09.059Z,7.95
2024-02-23T11:26:39.212Z,7.70
2024-02-23T11:29:16.996Z,7.47
2024-02-23T11:31:48.330Z,8.07
2024-02-23T11:34:25.780Z,7.97
2024-02-23T11:36:54.549Z,7.97
2024-02-23T11:39:24.518Z,7.68
2024-02-23T11:41:52.648Z,8.38
2024-02-23T11:44:21.501Z,8.57
2024-02-23T11:46:49.388Z,7.90
2024-02-23T11:49:17.691Z,8.98
2024-02-23T11:51:45.914Z,9.00
2024-02-23T11:54:15.070Z,8.95
2024-02-23T11:56:45.317Z,8.70
2024-02-23T11:59:14.269Z,8.10
2024-02-23T12:01:42.595Z,8.45
2024-02-23T12:04:10.805Z,8.55
2024-02-23T12:06:38.685Z,9.48
2024-02-23T12:09:07.977Z,7.50
2024-02-23T12:11:36.520Z,7.65
2024-02-23T12:14:08.920Z,7.90
2024-02-23T12:16:37.773Z,8.55
2024-02-23T12:19:06.076Z,7.78
2024-02-23T12:21:37.660Z,7.85
2024-02-23T12:24:10.062Z,8.95
2024-02-23T12:26:38.492Z,8.43
2024-02-23T12:29:07.640Z,8.65
2024-02-23T12:31:35.986Z,8.45
2024-02-23T12:34:04.322Z,8.38
2024-02-23T12:36:36.273Z,8.50
2024-02-23T12:39:04.720Z,8.25
2024-02-23T12:41:33.111Z,7.78
2024-02-23T12:44:01.385Z,8.02
2024-02-23T12:46:29.228Z,7.97
2024-02-23T12:48:57.293Z,7.85
2024-02-23T12:51:28.387Z,7.90
2024-02-23T12:53:56.896Z,7.22
2024-02-23T12:56:26.454Z,7.93
2024-02-23T12:58:55.616Z,7.53
2024-02-23T13:01:23.856Z,7.70
2024-02-23T13:03:52.083Z,7.65
2024-02-23T13:06:20.119Z,7.85
2024-02-23T13:08:48.300Z,8.23
2024-02-23T13:11:16.327Z,8.55
2024-02-23T13:13:45.603Z,8.73
2024-02-23T13:16:16.247Z,8.63
2024-02-23T13:18:45.349Z,8.48
2024-02-23T13:21:14.144Z,8.73
2024-02-23T13:23:44.499Z,8.98
2024-02-23T13:26:15.608Z,9.23
2024-02-23T13:28:45.467Z,9.77
2024-02-23T13:31:14.943Z,9.18
2024-02-23T13:33:43.355Z,9.90
2024-02-23T13:36:13.173Z,9.82
2024-02-23T13:38:43.145Z,9.48
2024-02-23T13:41:12.916Z,9.63
2024-02-23T13:43:41.382Z,9.70
2024-02-23T13:46:09.252Z,9.43
2024-02-23T13:48:38.270Z,9.40
2024-02-23T13:51:06.866Z,9.75
2024-02-23T13:53:37.493Z,10.70
2024-02-23T13:56:05.978Z,9.63
2024-02-23T13:58:34.266Z,10.25
2024-02-23T14:01:02.284Z,10.35
2024-02-23T14:03:31.946Z,10.32
2024-02-23T14:06:00.162Z,10.77
2024-02-23T14:08:28.459Z,10.70
2024-02-23T14:10:56.384Z,11.00
2024-02-23T14:13:24.656Z,10.75
2024-02-23T14:15:52.606Z,10.70
2024-02-23T14:18:20.836Z,10.60
2024-02-23T14:20:48.736Z,10.85
2024-02-23T14:23:17.002Z,11.07
2024-02-23T14:25:44.788Z,11.13
2024-02-23T14:28:13.517Z,10.85
2024-02-23T14:30:44.123Z,10.68
2024-02-23T14:33:12.277Z,11.00
2024-02-23T14:35:40.165Z,11.77
2024-02-23T14:38:08.592Z,11.20
2024-02-23T14:40:36.601Z,12.63
2024-02-23T14:43:05.997Z,12.70
2024-02-23T14:45:34.410Z,13.10
2024-02-23T14:48:02.619Z,11.85
2024-02-23T14:50:30.762Z,12.45
2024-02-23T14:52:59.002Z,12.68
2024-02-23T14:55:27.068Z,13.20
2024-02-23T14:57:56.165Z,13.50
2024-02-23T15:00:23.954Z,13.13
2024-02-23T15:02:52.077Z,14.00
2024-02-23T15:05:20.454Z,14.70
2024-02-23T15:07:48.632Z,14.05
2024-02-23T15:10:16.499Z,14.80
2024-02-23T15:12:44.684Z,20.45
2024-02-23T15:15:12.677Z,14.75
2024-02-23T15:20:11.624Z,15.82
2024-02-23T15:22:43.567Z,15.73
2024-02-23T15:25:11.498Z,15.27
2024-02-23T15:27:39.571Z,14.23
2024-02-23T15:30:11.772Z,14.90
2024-02-23T15:32:40.209Z,15.73
2024-02-23T15:35:08.429Z,14.55
2024-02-23T15:37:36.688Z,14.95
2024-02-23T15:40:07.544Z,15.82
2024-02-23T15:42:37.060Z,15.32
2024-02-23T15:45:08.399Z,14.90
2024-02-23T15:47:36.677Z,15.32
2024-02-23T15:50:22.716Z,17.55
2024-02-23T15:52:53.114Z,16.77
2024-02-23T15:55:21.616Z,16.83
2024-02-23T15:57:49.825Z,17.30
2024-02-23T16:00:18.238Z,17.25
2024-02-23T16:02:46.541Z,17.42
2024-02-23T16:05:14.547Z,16.85
2024-02-23T16:07:42.873Z,19.70
2024-02-23T16:10:13.920Z,18.73
2024-02-23T16:12:42.285Z,19.92
2024-02-23T16:15:10.434Z,19.13
2024-02-23T16:17:38.744Z,20.05
2024-02-23T16:20:07.543Z,19.52
2024-02-23T16:22:35.740Z,23.67
2024-02-23T16:25:04.311Z,24.95
2024-02-23T16:27:32.523Z,23.80
2024-02-23T16:30:01.145Z,25.58
2024-02-23T16:32:29.495Z,22.52
2024-02-23T16:34:57.457Z,22.45
2024-02-23T16:37:26.030Z,22.48
2024-02-23T16:39:54.021Z,23.50
2024-02-23T16:42:22.250Z,23.25
2024-02-23T16:44:50.037Z,23.38
2024-02-23T16:47:18.172Z,23.35
2024-02-23T16:49:46.157Z,22.98
2024-02-23T16:52:14.532Z,23.80
2024-02-23T16:54:42.375Z,40.10
2024-02-23T16:57:10.624Z,48.00
2024-02-23T16:59:38.590Z,41.63
2024-02-23T17:02:06.803Z,44.25
2024-02-23T17:04:34.787Z,44.03
2024-02-23T17:07:03.148Z,37.85
2024-02-23T17:09:31.084Z,34.83
2024-02-23T17:11:59.228Z,33.28
2024-02-23T17:14:27.134Z,30.00
2024-02-23T17:16:55.192Z,32.15
2024-02-23T17:19:24.372Z,31.67
2024-02-23T17:21:52.472Z,35.67
2024-02-23T17:24:20.279Z,33.97
2024-02-23T17:26:48.410Z,34.90
2024-02-23T17:29:16.346Z,39.10
2024-02-23T17:31:44.769Z,37.20
2024-02-23T17:34:17.404Z,38.92
2024-02-23T17:36:47.238Z,35.60
2024-02-23T17:39:17.061Z,36.15
2024-02-23T17:41:45.612Z,36.85
2024-02-23T17:44:13.729Z,43.38
2024-02-23T17:46:43.398Z,44.38
2024-02-23T17:49:12.262Z,40.17
2024-02-23T17:51:40.854Z,42.70
2024-02-23T17:54:09.375Z,44.83
2024-02-23T17:56:37.708Z,49.22
2024-02-23T17:59:06.313Z,55.05
2024-02-23T18:01:34.795Z,53.97
2024-02-23T18:04:02.991Z,62.65
2024-02-23T18:06:31.373Z,55.13
2024-02-23T18:08:59.321Z,57.88
2024-02-23T18:11:29.355Z,53.75
2024-02-23T18:13:57.420Z,51.65
2024-02-23T18:16:25.738Z,47.70
2024-02-23T18:18:54.564Z,55.95
2024-02-23T18:21:23.376Z,53.95
2024-02-23T18:23:51.286Z,53.40
2024-02-23T18:26:19.619Z,57.22
2024-02-23T18:28:47.538Z,54.70
2024-02-23T18:31:20.612Z,51.63
2024-02-23T18:33:48.690Z,48.17
2024-02-23T18:36:17.406Z,44.80
2024-02-23T18:38:45.904Z,45.85
2024-02-23T18:41:14.544Z,46.60
2024-02-23T18:43:44.475Z,53.45
2024-02-23T18:46:13.977Z,49.90
2024-02-23T18:48:42.082Z,53.70
2024-02-23T18:51:11.468Z,48.78
2024-02-23T18:53:40.759Z,51.58
2024-02-23T18:56:09.887Z,50.83
2024-02-23T18:58:37.829Z,49.85
2024-02-23T19:01:08.254Z,48.80
2024-02-23T19:03:36.882Z,50.92
2024-02-23T19:06:06.351Z,48.45
2024-02-23T19:08:34.435Z,63.80
2024-02-23T19:11:05.074Z,53.92
2024-02-23T19:13:33.000Z,48.22
2024-02-23T19:16:01.224Z,54.13
2024-02-23T19:18:29.098Z,53.35
2024-02-23T19:20:57.310Z,55.70
2024-02-23T19:23:25.325Z,62.15
2024-02-23T19:25:53.589Z,65.53
2024-02-23T19:28:21.413Z,64.13
2024-02-23T19:30:49.481Z,63.67
2024-02-23T19:33:17.249Z,58.47
2024-02-23T19:35:45.479Z,62.75
2024-02-23T19:38:13.565Z,62.53
2024-02-23T19:40:41.751Z,52.03
2024-02-23T19:43:09.656Z,59.75
2024-02-23T19:45:37.847Z,89.13
2024-02-23T19:48:06.070Z,82.38
2024-02-23T19:50:34.322Z,84.13
2024-02-23T19:53:02.222Z,72.07
2024-02-23T19:55:31.170Z,59.25
2024-02-23T19:57:59.620Z,46.70
2024-02-23T20:00:28.650Z,48.00
2024-02-23T20:02:56.774Z,47.60
2024-02-23T20:05:27.326Z,47.88
2024-02-23T20:07:55.719Z,50.20
2024-02-23T20:10:24.051Z,46.70
2024-02-23T20:12:52.056Z,48.80
2024-02-23T20:15:20.314Z,49.40
2024-02-23T20:17:48.346Z,71.45
2024-02-23T20:20:18.608Z,68.00
2024-02-23T20:22:46.445Z,69.32
2024-02-23T20:25:14.640Z,60.58
2024-02-23T20:27:42.634Z,51.13
2024-02-23T20:30:11.573Z,51.78
2024-02-23T20:32:39.700Z,47.88
2024-02-23T20:35:09.531Z,50.20
2024-02-23T20:37:39.175Z,49.58
2024-02-23T20:40:09.748Z,54.55
2024-02-23T20:42:37.710Z,56.28
2024-02-23T20:45:08.507Z,49.95
2024-02-23T20:47:36.630Z,52.30
2024-02-23T20:50:06.162Z,45.85
2024-02-23T20:52:34.085Z,53.55
2024-02-23T20:55:02.271Z,50.92
2024-02-23T20:57:30.363Z,45.97
2024-02-23T20:59:58.986Z,47.78
2024-02-23T21:02:26.925Z,48.72
2024-02-23T21:04:55.197Z,56.35
2024-02-23T21:07:23.113Z,50.00
2024-02-23T21:09:51.262Z,50.90
2024-02-23T21:12:19.206Z,52.22
2024-02-23T21:14:48.420Z,53.90
2024-02-23T21:17:17.602Z,64.95
2024-02-23T21:19:45.694Z,54.65
2024-02-23T21:22:13.522Z,49.47
2024-02-23T21:24:45.922Z,50.50
2024-02-23T21:27:15.176Z,51.58
2024-02-23T21:29:45.397Z,49.22
2024-02-23T21:32:13.865Z,47.85
2024-02-23T21:34:42.183Z,47.83
2024-02-23T21:37:10.085Z,46.88
2024-02-23T21:39:38.083Z,46.63
2024-02-23T21:42:06.215Z,48.58
2024-02-23T21:44:34.896Z,48.75
2024-02-23T21:47:02.716Z,48.50
2024-02-23T21:49:30.924Z,49.10
2024-02-23T21:52:04.346Z,47.92
2024-02-23T21:54:33.148Z,47.90
2024-02-23T21:57:01.973Z,45.42
2024-02-23T21:59:31.074Z,46.65
2024-02-23T22:02:06.315Z,47.65
2024-02-23T22:04:36.575Z,45.85
2024-02-23T22:07:05.225Z,44.40
2024-02-23T22:09:33.378Z,43.00
2024-02-23T22:12:02.791Z,44.55
2024-02-23T22:14:31.066Z,42.85
2024-02-23T22:16:58.894Z,44.22
2024-02-23T22:19:27.119Z,42.17
2024-02-23T22:21:55.479Z,41.85
2024-02-23T22:24:24.553Z,44.22
2024-02-23T22:26:52.578Z,42.75
2024-02-23T22:29:21.585Z,41.85
2024-02-23T22:31:49.578Z,42.13
2024-02-23T22:34:19.276Z,43.88
2024-02-23T22:36:47.283Z,43.55
2024-02-23T22:39:15.490Z,41.35
2024-02-23T22:41:43.600Z,41.05
2024-02-23T22:44:13.744Z,43.20
2024-02-23T22:46:42.060Z,42.65
2024-02-23T22:49:11.347Z,40.10
2024-02-23T22:51:44.039Z,40.17
2024-02-23T22:54:12.354Z,39.55
2024-02-23T22:56:40.186Z,36.47
2024-02-23T22:59:11.313Z,34.05
2024-02-23T23:01:42.657Z,34.75
2024-02-23T23:04:10.715Z,33.00
2024-02-23T23:06:41.991Z,34.97
2024-02-23T23:09:10.752Z,37.33
2024-02-23T23:11:42.130Z,35.97
2024-02-23T23:14:10.629Z,34.83
2024-02-23T23:16:38.586Z,33.85
2024-02-23T23:19:06.889Z,34.42
2024-02-23T23:21:34.946Z,35.20
2024-02-23T23:24:03.156Z,39.30
2024-02-23T23:26:31.043Z,37.58
2024-02-23T23:28:59.286Z,36.90
2024-02-23T23:31:29.032Z,37.03
2024-02-23T23:33:57.542Z,36.55
2024-02-23T23:36:25.767Z,37.55
2024-02-23T23:38:53.998Z,34.70
2024-02-23T23:41:22.713Z,34.72
2024-02-23T23:43:51.009Z,31.83
2024-02-23T23:46:18.861Z,31.13
2024-02-23T23:48:48.544Z,30.25
2024-02-23T23:51:16.836Z,28.02
2024-02-23T23:53:45.037Z,26.80
2024-02-23T23:56:13.093Z,26.08
2024-02-23T23:58:41.757Z,26.80
